sensor_id;sensor_type;location;lat;lon;timestamp;temperature;humidity
3758;DHT22;1894;51.038;13.692;2023-03-16T00:00:17;0.50;99.90
3758;DHT22;1894;51.038;13.692;2023-03-16T00:02:44;0.50;99.90
3758;DHT22;1894;51.038;13.692;2023-03-16T00:05:13;0.40;99.90
3758;DHT22;1894;51.038;13.692;2023-03-16T00:07:40;0.30;99.90
3758;DHT22;1894;51.038;13.692;2023-03-16T00:10:09;0.30;99.90
3758;DHT22;1894;51.038;13.692;2023-03-16T00:12:38;0.30;99.90
3758;DHT22;1894;51.038;13.692;2023-03-16T00:15:06;0.40;99.90
3758;DHT22;1894;51.038;13.692;2023-03-16T00:17:33;0.30;99.90
3758;DHT22;1894;51.038;13.692;2023-03-16T00:20:01;0.40;99.90
3758;DHT22;1894;51.038;13.692;2023-03-16T00:22:33;0.40;99.90
3758;DHT22;1894;51.038;13.692;2023-03-16T00:25:00;0.40;99.90
3758;DHT22;1894;51.038;13.692;2023-03-16T00:27:28;0.50;99.90
3758;DHT22;1894;51.038;13.692;2023-03-16T00:29:55;0.70;99.90
3758;DHT22;1894;51.038;13.692;2023-03-16T00:32:24;0.70;99.90
3758;DHT22;1894;51.038;13.692;2023-03-16T00:34:52;0.70;99.90
3758;DHT22;1894;51.038;13.692;2023-03-16T00:37:22;0.70;99.90
3758;DHT22;1894;51.038;13.692;2023-03-16T00:39:50;0.70;99.90
3758;DHT22;1894;51.038;13.692;2023-03-16T00:42:19;0.70;99.90
3758;DHT22;1894;51.038;13.692;2023-03-16T00:44:46;0.60;99.90
3758;DHT22;1894;51.038;13.692;2023-03-16T00:47:13;0.70;99.90
3758;DHT22;1894;51.038;13.692;2023-03-16T00:49:42;0.60;99.90
3758;DHT22;1894;51.038;13.692;2023-03-16T00:52:11;0.60;99.90
3758;DHT22;1894;51.038;13.692;2023-03-16T00:54:43;0.70;99.90
3758;DHT22;1894;51.038;13.692;2023-03-16T00:57:13;0.60;99.90
3758;DHT22;1894;51.038;13.692;2023-03-16T00:59:42;0.60;99.90
3758;DHT22;1894;51.038;13.692;2023-03-16T01:02:10;0.60;99.90
3758;DHT22;1894;51.038;13.692;2023-03-16T01:04:38;0.60;99.90
3758;DHT22;1894;51.038;13.692;2023-03-16T01:07:09;0.50;99.90
3758;DHT22;1894;51.038;13.692;2023-03-16T01:09:39;0.40;99.90
3758;DHT22;1894;51.038;13.692;2023-03-16T01:12:08;0.30;99.90
3758;DHT22;1894;51.038;13.692;2023-03-16T01:14:38;0.30;99.90
3758;DHT22;1894;51.038;13.692;2023-03-16T01:17:07;0.30;99.90
3758;DHT22;1894;51.038;13.692;2023-03-16T01:19:36;0.30;99.90
3758;DHT22;1894;51.038;13.692;2023-03-16T01:22:08;0.30;99.90
3758;DHT22;1894;51.038;13.692;2023-03-16T01:24:38;0.40;99.90
3758;DHT22;1894;51.038;13.692;2023-03-16T01:27:07;0.40;99.90
3758;DHT22;1894;51.038;13.692;2023-03-16T01:29:35;0.40;99.90
3758;DHT22;1894;51.038;13.692;2023-03-16T01:32:03;0.40;99.90
3758;DHT22;1894;51.038;13.692;2023-03-16T01:34:32;0.30;99.90
3758;DHT22;1894;51.038;13.692;2023-03-16T01:37:00;0.20;99.90
3758;DHT22;1894;51.038;13.692;2023-03-16T01:39:42;0.20;99.90
3758;DHT22;1894;51.038;13.692;2023-03-16T01:42:10;0.10;99.90
3758;DHT22;1894;51.038;13.692;2023-03-16T01:44:57;0.20;99.90
3758;DHT22;1894;51.038;13.692;2023-03-16T01:47:37;0.10;99.90
3758;DHT22;1894;51.038;13.692;2023-03-16T01:50:11;0.00;99.90
3758;DHT22;1894;51.038;13.692;2023-03-16T01:52:40;0.00;99.90
3758;DHT22;1894;51.038;13.692;2023-03-16T01:55:08;0.10;99.90
3758;DHT22;1894;51.038;13.692;2023-03-16T01:57:41;0.10;99.90
3758;DHT22;1894;51.038;13.692;2023-03-16T02:00:13;0.00;99.90
3758;DHT22;1894;51.038;13.692;2023-03-16T02:03:08;0.00;99.90
3758;DHT22;1894;51.038;13.692;2023-03-16T02:05:58;0.00;99.90
3758;DHT22;1894;51.038;13.692;2023-03-16T02:08:30;-0.10;99.90
3758;DHT22;1894;51.038;13.692;2023-03-16T02:10:58;-0.10;99.90
3758;DHT22;1894;51.038;13.692;2023-03-16T02:13:38;-0.10;99.90
3758;DHT22;1894;51.038;13.692;2023-03-16T02:16:07;0.00;99.90
3758;DHT22;1894;51.038;13.692;2023-03-16T02:18:35;0.00;99.90
3758;DHT22;1894;51.038;13.692;2023-03-16T02:24:25;0.10;99.90
3758;DHT22;1894;51.038;13.692;2023-03-16T02:27:00;0.10;99.90
3758;DHT22;1894;51.038;13.692;2023-03-16T02:32:21;-0.20;99.90
3758;DHT22;1894;51.038;13.692;2023-03-16T02:34:49;-0.20;99.90
3758;DHT22;1894;51.038;13.692;2023-03-16T02:37:16;-0.30;99.90
3758;DHT22;1894;51.038;13.692;2023-03-16T02:39:43;-0.30;99.90
3758;DHT22;1894;51.038;13.692;2023-03-16T02:42:18;-0.30;99.90
3758;DHT22;1894;51.038;13.692;2023-03-16T02:44:55;-0.30;99.90
3758;DHT22;1894;51.038;13.692;2023-03-16T02:47:37;-0.30;99.90
3758;DHT22;1894;51.038;13.692;2023-03-16T02:50:09;-0.30;99.90
3758;DHT22;1894;51.038;13.692;2023-03-16T02:52:38;-0.20;99.90
3758;DHT22;1894;51.038;13.692;2023-03-16T02:55:07;-0.10;99.90
3758;DHT22;1894;51.038;13.692;2023-03-16T02:57:34;-0.10;99.90
3758;DHT22;1894;51.038;13.692;2023-03-16T03:00:08;0.00;99.90
3758;DHT22;1894;51.038;13.692;2023-03-16T03:02:40;0.00;99.90
3758;DHT22;1894;51.038;13.692;2023-03-16T03:05:07;-0.10;99.90
3758;DHT22;1894;51.038;13.692;2023-03-16T03:07:35;-0.10;99.90
3758;DHT22;1894;51.038;13.692;2023-03-16T03:10:05;-0.10;99.90
3758;DHT22;1894;51.038;13.692;2023-03-16T03:12:33;-0.10;99.90
3758;DHT22;1894;51.038;13.692;2023-03-16T03:15:04;-0.20;99.90
3758;DHT22;1894;51.038;13.692;2023-03-16T03:17:39;-0.10;99.90
3758;DHT22;1894;51.038;13.692;2023-03-16T03:20:10;-0.20;99.90
3758;DHT22;1894;51.038;13.692;2023-03-16T03:22:46;-0.10;99.90
3758;DHT22;1894;51.038;13.692;2023-03-16T03:25:19;-0.10;99.90
3758;DHT22;1894;51.038;13.692;2023-03-16T03:27:48;-0.20;99.90
3758;DHT22;1894;51.038;13.692;2023-03-16T03:30:22;-0.20;99.90
3758;DHT22;1894;51.038;13.692;2023-03-16T03:32:50;-0.20;99.90
3758;DHT22;1894;51.038;13.692;2023-03-16T03:35:21;-0.20;99.90
3758;DHT22;1894;51.038;13.692;2023-03-16T03:37:48;-0.20;99.90
3758;DHT22;1894;51.038;13.692;2023-03-16T03:40:18;-0.20;99.90
3758;DHT22;1894;51.038;13.692;2023-03-16T03:42:49;-0.20;99.90
3758;DHT22;1894;51.038;13.692;2023-03-16T03:45:17;-0.10;99.90
3758;DHT22;1894;51.038;13.692;2023-03-16T03:47:44;-0.10;99.90
3758;DHT22;1894;51.038;13.692;2023-03-16T03:50:17;-0.10;99.90
3758;DHT22;1894;51.038;13.692;2023-03-16T03:53:05;-0.10;99.90
3758;DHT22;1894;51.038;13.692;2023-03-16T03:55:43;-0.10;99.90
3758;DHT22;1894;51.038;13.692;2023-03-16T03:58:10;0.00;99.90
3758;DHT22;1894;51.038;13.692;2023-03-16T04:00:41;0.00;99.90
3758;DHT22;1894;51.038;13.692;2023-03-16T04:03:08;0.00;99.90
3758;DHT22;1894;51.038;13.692;2023-03-16T04:05:42;0.00;99.90
3758;DHT22;1894;51.038;13.692;2023-03-16T04:08:11;0.00;99.90
3758;DHT22;1894;51.038;13.692;2023-03-16T04:10:38;0.10;99.90
3758;DHT22;1894;51.038;13.692;2023-03-16T04:13:06;0.10;99.90
3758;DHT22;1894;51.038;13.692;2023-03-16T04:15:33;0.10;99.90
3758;DHT22;1894;51.038;13.692;2023-03-16T04:18:09;0.10;99.90
3758;DHT22;1894;51.038;13.692;2023-03-16T04:20:39;0.10;99.90
3758;DHT22;1894;51.038;13.692;2023-03-16T04:23:07;0.10;99.90
3758;DHT22;1894;51.038;13.692;2023-03-16T04:25:37;0.10;99.90
3758;DHT22;1894;51.038;13.692;2023-03-16T04:28:06;0.10;99.90
3758;DHT22;1894;51.038;13.692;2023-03-16T04:30:36;0.10;99.90
3758;DHT22;1894;51.038;13.692;2023-03-16T04:33:13;0.10;99.90
3758;DHT22;1894;51.038;13.692;2023-03-16T04:35:41;0.10;99.90
3758;DHT22;1894;51.038;13.692;2023-03-16T04:38:08;0.10;99.90
3758;DHT22;1894;51.038;13.692;2023-03-16T04:40:43;0.10;99.90
3758;DHT22;1894;51.038;13.692;2023-03-16T04:43:15;0.10;99.90
3758;DHT22;1894;51.038;13.692;2023-03-16T04:45:43;0.00;99.90
3758;DHT22;1894;51.038;13.692;2023-03-16T04:48:10;0.10;99.90
3758;DHT22;1894;51.038;13.692;2023-03-16T04:50:38;0.00;99.90
3758;DHT22;1894;51.038;13.692;2023-03-16T04:53:07;-0.10;99.90
3758;DHT22;1894;51.038;13.692;2023-03-16T04:55:35;-0.20;99.90
3758;DHT22;1894;51.038;13.692;2023-03-16T04:58:03;-0.20;99.90
3758;DHT22;1894;51.038;13.692;2023-03-16T05:00:34;-0.30;99.90
3758;DHT22;1894;51.038;13.692;2023-03-16T05:03:20;-0.40;99.90
3758;DHT22;1894;51.038;13.692;2023-03-16T05:05:48;-0.40;99.90
3758;DHT22;1894;51.038;13.692;2023-03-16T05:08:16;-0.40;99.90
3758;DHT22;1894;51.038;13.692;2023-03-16T05:10:47;-0.50;99.90
3758;DHT22;1894;51.038;13.692;2023-03-16T05:13:15;-0.50;99.90
3758;DHT22;1894;51.038;13.692;2023-03-16T05:15:45;-0.50;99.90
3758;DHT22;1894;51.038;13.692;2023-03-16T05:18:21;-0.50;99.90
3758;DHT22;1894;51.038;13.692;2023-03-16T05:20:53;-0.60;99.90
3758;DHT22;1894;51.038;13.692;2023-03-16T05:23:31;-0.60;99.90
3758;DHT22;1894;51.038;13.692;2023-03-16T05:26:01;-0.50;99.90
3758;DHT22;1894;51.038;13.692;2023-03-16T05:28:31;-0.50;99.90
3758;DHT22;1894;51.038;13.692;2023-03-16T05:31:02;-0.60;99.90
3758;DHT22;1894;51.038;13.692;2023-03-16T05:33:37;-0.60;99.90
3758;DHT22;1894;51.038;13.692;2023-03-16T05:36:08;-0.60;99.90
3758;DHT22;1894;51.038;13.692;2023-03-16T05:38:38;-0.50;99.90
3758;DHT22;1894;51.038;13.692;2023-03-16T05:41:08;-0.40;99.90
3758;DHT22;1894;51.038;13.692;2023-03-16T05:43:53;-0.40;99.90
3758;DHT22;1894;51.038;13.692;2023-03-16T05:46:23;-0.40;99.90
3758;DHT22;1894;51.038;13.692;2023-03-16T05:48:51;-0.40;99.90
3758;DHT22;1894;51.038;13.692;2023-03-16T05:51:20;-0.40;99.90
3758;DHT22;1894;51.038;13.692;2023-03-16T05:53:47;-0.40;99.90
3758;DHT22;1894;51.038;13.692;2023-03-16T05:56:27;-0.40;99.90
3758;DHT22;1894;51.038;13.692;2023-03-16T05:58:55;-0.40;99.90
3758;DHT22;1894;51.038;13.692;2023-03-16T06:01:24;-0.20;99.90
3758;DHT22;1894;51.038;13.692;2023-03-16T06:03:52;-0.30;99.90
3758;DHT22;1894;51.038;13.692;2023-03-16T06:06:23;-0.20;99.90
3758;DHT22;1894;51.038;13.692;2023-03-16T06:08:57;-0.20;99.90
3758;DHT22;1894;51.038;13.692;2023-03-16T06:11:26;-0.20;99.90
3758;DHT22;1894;51.038;13.692;2023-03-16T06:13:53;-0.20;99.90
3758;DHT22;1894;51.038;13.692;2023-03-16T06:16:24;-0.10;99.90
3758;DHT22;1894;51.038;13.692;2023-03-16T06:18:51;0.00;99.90
3758;DHT22;1894;51.038;13.692;2023-03-16T06:21:19;0.10;99.90
3758;DHT22;1894;51.038;13.692;2023-03-16T06:23:49;0.20;99.90
3758;DHT22;1894;51.038;13.692;2023-03-16T06:26:18;0.30;99.90
3758;DHT22;1894;51.038;13.692;2023-03-16T06:28:47;0.40;99.90
3758;DHT22;1894;51.038;13.692;2023-03-16T06:31:15;0.50;99.90
3758;DHT22;1894;51.038;13.692;2023-03-16T06:33:44;0.60;99.90
3758;DHT22;1894;51.038;13.692;2023-03-16T06:36:11;0.70;99.90
3758;DHT22;1894;51.038;13.692;2023-03-16T06:38:44;0.70;99.90
3758;DHT22;1894;51.038;13.692;2023-03-16T06:41:22;0.90;99.90
3758;DHT22;1894;51.038;13.692;2023-03-16T06:43:49;1.00;99.90
3758;DHT22;1894;51.038;13.692;2023-03-16T06:46:16;1.10;99.90
3758;DHT22;1894;51.038;13.692;2023-03-16T06:48:44;1.20;99.90
3758;DHT22;1894;51.038;13.692;2023-03-16T06:51:13;1.40;99.90
3758;DHT22;1894;51.038;13.692;2023-03-16T06:53:43;1.60;99.90
3758;DHT22;1894;51.038;13.692;2023-03-16T06:56:11;1.80;99.90
3758;DHT22;1894;51.038;13.692;2023-03-16T06:58:40;2.00;99.90
3758;DHT22;1894;51.038;13.692;2023-03-16T07:01:07;2.20;99.90
3758;DHT22;1894;51.038;13.692;2023-03-16T07:03:35;2.30;99.90
3758;DHT22;1894;51.038;13.692;2023-03-16T07:06:10;2.50;99.90
3758;DHT22;1894;51.038;13.692;2023-03-16T07:08:38;2.60;99.90
3758;DHT22;1894;51.038;13.692;2023-03-16T07:11:05;2.70;99.90
3758;DHT22;1894;51.038;13.692;2023-03-16T07:13:32;2.70;99.90
3758;DHT22;1894;51.038;13.692;2023-03-16T07:16:02;2.90;99.90
3758;DHT22;1894;51.038;13.692;2023-03-16T07:18:31;3.00;99.90
3758;DHT22;1894;51.038;13.692;2023-03-16T07:20:59;3.10;99.90
3758;DHT22;1894;51.038;13.692;2023-03-16T07:23:26;3.10;99.90
3758;DHT22;1894;51.038;13.692;2023-03-16T07:26:00;3.10;99.90
3758;DHT22;1894;51.038;13.692;2023-03-16T07:28:28;3.20;99.90
3758;DHT22;1894;51.038;13.692;2023-03-16T07:30:57;3.40;99.90
3758;DHT22;1894;51.038;13.692;2023-03-16T07:33:35;3.50;99.90
3758;DHT22;1894;51.038;13.692;2023-03-16T07:36:05;3.60;99.90
3758;DHT22;1894;51.038;13.692;2023-03-16T07:38:40;3.50;99.90
3758;DHT22;1894;51.038;13.692;2023-03-16T07:41:09;3.30;99.90
3758;DHT22;1894;51.038;13.692;2023-03-16T07:43:37;3.20;99.90
3758;DHT22;1894;51.038;13.692;2023-03-16T07:46:07;3.60;99.90
3758;DHT22;1894;51.038;13.692;2023-03-16T07:48:35;3.60;99.90
3758;DHT22;1894;51.038;13.692;2023-03-16T07:51:03;3.90;99.90
3758;DHT22;1894;51.038;13.692;2023-03-16T07:53:30;3.90;99.90
3758;DHT22;1894;51.038;13.692;2023-03-16T07:56:12;3.80;99.90
3758;DHT22;1894;51.038;13.692;2023-03-16T07:58:43;3.80;99.90
3758;DHT22;1894;51.038;13.692;2023-03-16T08:01:10;4.00;99.90
3758;DHT22;1894;51.038;13.692;2023-03-16T08:03:37;4.10;99.90
3758;DHT22;1894;51.038;13.692;2023-03-16T08:06:05;4.10;99.90
3758;DHT22;1894;51.038;13.692;2023-03-16T08:08:34;4.50;99.90
3758;DHT22;1894;51.038;13.692;2023-03-16T08:11:01;4.50;99.90
3758;DHT22;1894;51.038;13.692;2023-03-16T08:13:57;4.40;99.90
3758;DHT22;1894;51.038;13.692;2023-03-16T08:16:37;4.50;99.90
3758;DHT22;1894;51.038;13.692;2023-03-16T08:19:05;4.60;99.90
3758;DHT22;1894;51.038;13.692;2023-03-16T08:21:33;4.70;99.90
3758;DHT22;1894;51.038;13.692;2023-03-16T08:24:22;5.00;99.90
3758;DHT22;1894;51.038;13.692;2023-03-16T08:26:49;5.20;99.90
3758;DHT22;1894;51.038;13.692;2023-03-16T08:29:19;5.10;99.90
3758;DHT22;1894;51.038;13.692;2023-03-16T08:31:47;5.20;99.90
3758;DHT22;1894;51.038;13.692;2023-03-16T08:34:26;5.30;99.90
3758;DHT22;1894;51.038;13.692;2023-03-16T08:36:55;5.30;99.90
3758;DHT22;1894;51.038;13.692;2023-03-16T08:39:22;5.60;99.90
3758;DHT22;1894;51.038;13.692;2023-03-16T08:41:50;5.90;99.90
3758;DHT22;1894;51.038;13.692;2023-03-16T08:44:27;6.10;99.90
3758;DHT22;1894;51.038;13.692;2023-03-16T08:46:55;6.10;99.90
3758;DHT22;1894;51.038;13.692;2023-03-16T08:49:22;5.80;99.90
3758;DHT22;1894;51.038;13.692;2023-03-16T08:51:58;5.80;99.90
3758;DHT22;1894;51.038;13.692;2023-03-16T08:54:26;5.80;99.90
3758;DHT22;1894;51.038;13.692;2023-03-16T08:56:54;5.80;99.90
3758;DHT22;1894;51.038;13.692;2023-03-16T08:59:21;6.00;99.90
3758;DHT22;1894;51.038;13.692;2023-03-16T09:01:56;6.00;99.90
3758;DHT22;1894;51.038;13.692;2023-03-16T09:04:23;6.10;99.90
3758;DHT22;1894;51.038;13.692;2023-03-16T09:06:51;6.30;99.90
3758;DHT22;1894;51.038;13.692;2023-03-16T09:09:34;6.40;99.90
3758;DHT22;1894;51.038;13.692;2023-03-16T09:12:02;6.50;99.90
3758;DHT22;1894;51.038;13.692;2023-03-16T09:14:30;6.50;99.90
3758;DHT22;1894;51.038;13.692;2023-03-16T09:16:57;6.60;99.90
3758;DHT22;1894;51.038;13.692;2023-03-16T09:19:25;6.70;99.90
3758;DHT22;1894;51.038;13.692;2023-03-16T09:21:56;6.70;99.90
3758;DHT22;1894;51.038;13.692;2023-03-16T09:24:23;6.80;99.90
3758;DHT22;1894;51.038;13.692;2023-03-16T09:26:51;6.70;99.90
3758;DHT22;1894;51.038;13.692;2023-03-16T09:29:18;6.80;99.90
3758;DHT22;1894;51.038;13.692;2023-03-16T09:31:47;7.20;99.90
3758;DHT22;1894;51.038;13.692;2023-03-16T09:34:14;6.90;99.90
3758;DHT22;1894;51.038;13.692;2023-03-16T09:36:42;6.90;99.90
3758;DHT22;1894;51.038;13.692;2023-03-16T09:39:09;7.10;99.90
3758;DHT22;1894;51.038;13.692;2023-03-16T09:41:48;7.30;99.90
3758;DHT22;1894;51.038;13.692;2023-03-16T09:44:25;7.50;99.90
3758;DHT22;1894;51.038;13.692;2023-03-16T09:46:59;7.30;99.60
3758;DHT22;1894;51.038;13.692;2023-03-16T09:49:34;7.10;99.20
3758;DHT22;1894;51.038;13.692;2023-03-16T09:52:38;7.20;99.30
3758;DHT22;1894;51.038;13.692;2023-03-16T09:55:31;7.50;99.50
3758;DHT22;1894;51.038;13.692;2023-03-16T09:58:05;7.20;98.80
3758;DHT22;1894;51.038;13.692;2023-03-16T10:06:27;7.50;98.10
3758;DHT22;1894;51.038;13.692;2023-03-16T10:12:23;7.50;97.30
3758;DHT22;1894;51.038;13.692;2023-03-16T10:15:13;7.70;98.30
3758;DHT22;1894;51.038;13.692;2023-03-16T10:17:47;7.90;96.90
3758;DHT22;1894;51.038;13.692;2023-03-16T10:20:22;7.80;96.60
3758;DHT22;1894;51.038;13.692;2023-03-16T10:22:51;7.90;95.90
3758;DHT22;1894;51.038;13.692;2023-03-16T10:25:26;8.10;96.00
3758;DHT22;1894;51.038;13.692;2023-03-16T10:27:57;8.00;95.80
3758;DHT22;1894;51.038;13.692;2023-03-16T10:30:27;8.10;95.80
3758;DHT22;1894;51.038;13.692;2023-03-16T10:33:03;8.20;95.70
3758;DHT22;1894;51.038;13.692;2023-03-16T10:38:58;8.30;94.30
3758;DHT22;1894;51.038;13.692;2023-03-16T10:41:42;8.40;93.90
3758;DHT22;1894;51.038;13.692;2023-03-16T10:44:13;8.70;93.90
3758;DHT22;1894;51.038;13.692;2023-03-16T10:47:03;8.90;92.40
3758;DHT22;1894;51.038;13.692;2023-03-16T10:49:37;8.80;92.40
3758;DHT22;1894;51.038;13.692;2023-03-16T10:52:13;8.70;91.60
3758;DHT22;1894;51.038;13.692;2023-03-16T10:54:56;8.80;92.10
3758;DHT22;1894;51.038;13.692;2023-03-16T10:57:30;9.00;91.00
3758;DHT22;1894;51.038;13.692;2023-03-16T11:02:40;9.20;90.50
3758;DHT22;1894;51.038;13.692;2023-03-16T11:05:31;9.10;89.90
3758;DHT22;1894;51.038;13.692;2023-03-16T11:08:14;9.30;89.40
3758;DHT22;1894;51.038;13.692;2023-03-16T11:10:54;9.30;88.00
3758;DHT22;1894;51.038;13.692;2023-03-16T11:13:31;9.30;89.10
3758;DHT22;1894;51.038;13.692;2023-03-16T11:18:44;9.00;88.00
3758;DHT22;1894;51.038;13.692;2023-03-16T11:21:33;8.90;86.40
3758;DHT22;1894;51.038;13.692;2023-03-16T11:24:03;8.90;87.30
3758;DHT22;1894;51.038;13.692;2023-03-16T11:26:34;8.90;85.60
3758;DHT22;1894;51.038;13.692;2023-03-16T11:29:08;9.00;85.50
3758;DHT22;1894;51.038;13.692;2023-03-16T11:31:50;9.20;85.10
3758;DHT22;1894;51.038;13.692;2023-03-16T11:34:27;9.20;83.10
3758;DHT22;1894;51.038;13.692;2023-03-16T11:37:09;10.40;83.10
3758;DHT22;1894;51.038;13.692;2023-03-16T11:44:05;13.30;64.90
3758;DHT22;1894;51.038;13.692;2023-03-16T11:46:46;14.60;58.60
3758;DHT22;1894;51.038;13.692;2023-03-16T12:00:35;19.90;40.40
3758;DHT22;1894;51.038;13.692;2023-03-16T12:09:14;22.70;35.90
3758;DHT22;1894;51.038;13.692;2023-03-16T12:12:42;22.70;35.00
3758;DHT22;1894;51.038;13.692;2023-03-16T12:21:18;21.80;34.40
3758;DHT22;1894;51.038;13.692;2023-03-16T12:23:57;22.80;33.70
3758;DHT22;1894;51.038;13.692;2023-03-16T12:26:35;22.80;32.80
3758;DHT22;1894;51.038;13.692;2023-03-16T12:29:55;23.60;33.20
3758;DHT22;1894;51.038;13.692;2023-03-16T12:32:18;24.90;32.60
3758;DHT22;1894;51.038;13.692;2023-03-16T12:35:00;25.80;30.40
3758;DHT22;1894;51.038;13.692;2023-03-16T12:44:01;24.20;30.40
3758;DHT22;1894;51.038;13.692;2023-03-16T12:49:36;22.80;30.10
3758;DHT22;1894;51.038;13.692;2023-03-16T12:52:09;24.50;30.00
3758;DHT22;1894;51.038;13.692;2023-03-16T12:57:40;23.90;28.30
3758;DHT22;1894;51.038;13.692;2023-03-16T13:00:10;24.70;29.20
3758;DHT22;1894;51.038;13.692;2023-03-16T13:02:48;24.70;27.90
3758;DHT22;1894;51.038;13.692;2023-03-16T13:05:30;24.70;27.90
3758;DHT22;1894;51.038;13.692;2023-03-16T13:08:14;23.90;28.10
3758;DHT22;1894;51.038;13.692;2023-03-16T13:11:06;24.30;27.90
3758;DHT22;1894;51.038;13.692;2023-03-16T13:14:08;23.90;27.10
3758;DHT22;1894;51.038;13.692;2023-03-16T13:16:38;24.70;27.50
3758;DHT22;1894;51.038;13.692;2023-03-16T13:19:23;22.00;27.20
3758;DHT22;1894;51.038;13.692;2023-03-16T13:24:59;24.00;26.70
3758;DHT22;1894;51.038;13.692;2023-03-16T13:27:39;24.90;27.10
3758;DHT22;1894;51.038;13.692;2023-03-16T13:30:21;25.10;25.60
3758;DHT22;1894;51.038;13.692;2023-03-16T13:32:58;25.30;25.40
3758;DHT22;1894;51.038;13.692;2023-03-16T13:35:29;26.00;25.20
3758;DHT22;1894;51.038;13.692;2023-03-16T13:38:04;27.20;24.50
3758;DHT22;1894;51.038;13.692;2023-03-16T13:40:32;26.50;24.30
3758;DHT22;1894;51.038;13.692;2023-03-16T13:43:01;26.10;24.50
3758;DHT22;1894;51.038;13.692;2023-03-16T13:45:33;27.00;24.90
3758;DHT22;1894;51.038;13.692;2023-03-16T13:48:03;25.40;24.50
3758;DHT22;1894;51.038;13.692;2023-03-16T13:50:32;26.80;25.10
3758;DHT22;1894;51.038;13.692;2023-03-16T13:53:11;26.10;24.30
3758;DHT22;1894;51.038;13.692;2023-03-16T13:55:45;25.60;24.30
3758;DHT22;1894;51.038;13.692;2023-03-16T13:58:26;24.30;24.60
3758;DHT22;1894;51.038;13.692;2023-03-16T14:01:04;24.80;24.90
3758;DHT22;1894;51.038;13.692;2023-03-16T14:03:49;25.50;24.00
3758;DHT22;1894;51.038;13.692;2023-03-16T14:06:28;26.40;23.90
3758;DHT22;1894;51.038;13.692;2023-03-16T14:09:00;25.40;24.20
3758;DHT22;1894;51.038;13.692;2023-03-16T14:11:29;25.50;24.20
3758;DHT22;1894;51.038;13.692;2023-03-16T14:13:58;25.40;24.50
3758;DHT22;1894;51.038;13.692;2023-03-16T14:16:29;24.10;25.20
3758;DHT22;1894;51.038;13.692;2023-03-16T14:21:31;24.40;25.70
3758;DHT22;1894;51.038;13.692;2023-03-16T14:24:05;22.60;25.60
3758;DHT22;1894;51.038;13.692;2023-03-16T14:26:42;24.70;26.70
3758;DHT22;1894;51.038;13.692;2023-03-16T14:29:29;26.10;24.80
3758;DHT22;1894;51.038;13.692;2023-03-16T14:31:58;24.30;25.10
3758;DHT22;1894;51.038;13.692;2023-03-16T14:34:35;24.70;26.30
3758;DHT22;1894;51.038;13.692;2023-03-16T14:37:09;24.90;24.80
3758;DHT22;1894;51.038;13.692;2023-03-16T14:39:37;26.00;25.30
3758;DHT22;1894;51.038;13.692;2023-03-16T14:42:33;25.50;25.50
3758;DHT22;1894;51.038;13.692;2023-03-16T14:45:02;24.40;25.90
3758;DHT22;1894;51.038;13.692;2023-03-16T14:47:40;24.50;25.80
3758;DHT22;1894;51.038;13.692;2023-03-16T14:50:16;24.60;25.70
3758;DHT22;1894;51.038;13.692;2023-03-16T14:52:49;25.20;25.30
3758;DHT22;1894;51.038;13.692;2023-03-16T14:55:18;25.30;25.40
3758;DHT22;1894;51.038;13.692;2023-03-16T14:57:46;25.90;25.10
3758;DHT22;1894;51.038;13.692;2023-03-16T15:00:15;24.90;25.00
3758;DHT22;1894;51.038;13.692;2023-03-16T15:02:58;24.10;25.70
3758;DHT22;1894;51.038;13.692;2023-03-16T15:05:37;23.80;26.20
3758;DHT22;1894;51.038;13.692;2023-03-16T15:08:18;24.90;24.80
3758;DHT22;1894;51.038;13.692;2023-03-16T15:10:53;25.10;25.40
3758;DHT22;1894;51.038;13.692;2023-03-16T15:13:21;25.10;24.90
3758;DHT22;1894;51.038;13.692;2023-03-16T15:16:10;25.40;24.50
3758;DHT22;1894;51.038;13.692;2023-03-16T15:18:38;25.60;24.90
3758;DHT22;1894;51.038;13.692;2023-03-16T15:21:22;25.30;25.80
3758;DHT22;1894;51.038;13.692;2023-03-16T15:23:55;24.70;26.00
3758;DHT22;1894;51.038;13.692;2023-03-16T15:26:26;24.80;26.20
3758;DHT22;1894;51.038;13.692;2023-03-16T15:28:55;24.90;26.60
3758;DHT22;1894;51.038;13.692;2023-03-16T15:31:23;23.80;27.20
3758;DHT22;1894;51.038;13.692;2023-03-16T15:33:51;24.20;27.20
3758;DHT22;1894;51.038;13.692;2023-03-16T15:36:20;24.20;27.50
3758;DHT22;1894;51.038;13.692;2023-03-16T15:38:50;23.50;27.90
3758;DHT22;1894;51.038;13.692;2023-03-16T15:41:19;23.30;27.30
3758;DHT22;1894;51.038;13.692;2023-03-16T15:43:46;23.00;29.00
3758;DHT22;1894;51.038;13.692;2023-03-16T15:46:14;22.00;28.60
3758;DHT22;1894;51.038;13.692;2023-03-16T15:48:42;22.20;29.00
3758;DHT22;1894;51.038;13.692;2023-03-16T15:51:20;22.50;28.70
3758;DHT22;1894;51.038;13.692;2023-03-16T15:53:57;22.30;29.40
3758;DHT22;1894;51.038;13.692;2023-03-16T15:56:28;20.50;28.80
3758;DHT22;1894;51.038;13.692;2023-03-16T15:59:03;19.00;31.10
3758;DHT22;1894;51.038;13.692;2023-03-16T16:01:38;17.60;33.70
3758;DHT22;1894;51.038;13.692;2023-03-16T16:04:16;15.90;35.70
3758;DHT22;1894;51.038;13.692;2023-03-16T16:06:46;14.60;36.70
3758;DHT22;1894;51.038;13.692;2023-03-16T16:09:15;13.20;39.80
3758;DHT22;1894;51.038;13.692;2023-03-16T16:11:42;12.90;41.50
3758;DHT22;1894;51.038;13.692;2023-03-16T16:14:20;12.40;42.40
3758;DHT22;1894;51.038;13.692;2023-03-16T16:16:49;11.50;44.90
3758;DHT22;1894;51.038;13.692;2023-03-16T16:19:16;11.10;46.20
3758;DHT22;1894;51.038;13.692;2023-03-16T16:21:44;11.00;47.30
3758;DHT22;1894;51.038;13.692;2023-03-16T16:24:13;10.70;48.70
3758;DHT22;1894;51.038;13.692;2023-03-16T16:26:42;10.50;48.80
3758;DHT22;1894;51.038;13.692;2023-03-16T16:29:22;10.30;49.60
3758;DHT22;1894;51.038;13.692;2023-03-16T16:31:51;10.10;50.70
3758;DHT22;1894;51.038;13.692;2023-03-16T16:34:21;9.90;52.80
3758;DHT22;1894;51.038;13.692;2023-03-16T16:36:56;9.60;53.60
3758;DHT22;1894;51.038;13.692;2023-03-16T16:39:23;9.40;54.70
3758;DHT22;1894;51.038;13.692;2023-03-16T16:41:52;9.30;56.00
3758;DHT22;1894;51.038;13.692;2023-03-16T16:44:26;9.20;55.90
3758;DHT22;1894;51.038;13.692;2023-03-16T16:46:58;9.10;56.20
3758;DHT22;1894;51.038;13.692;2023-03-16T16:49:27;8.90;56.80
3758;DHT22;1894;51.038;13.692;2023-03-16T16:51:57;8.80;57.70
3758;DHT22;1894;51.038;13.692;2023-03-16T16:54:29;8.70;58.30
3758;DHT22;1894;51.038;13.692;2023-03-16T16:56:58;8.50;58.60
3758;DHT22;1894;51.038;13.692;2023-03-16T16:59:33;8.40;59.40
3758;DHT22;1894;51.038;13.692;2023-03-16T17:02:26;8.20;59.90
3758;DHT22;1894;51.038;13.692;2023-03-16T17:04:56;8.20;60.40
3758;DHT22;1894;51.038;13.692;2023-03-16T17:07:23;8.10;61.00
3758;DHT22;1894;51.038;13.692;2023-03-16T17:09:51;7.90;61.10
3758;DHT22;1894;51.038;13.692;2023-03-16T17:12:20;7.80;61.20
3758;DHT22;1894;51.038;13.692;2023-03-16T17:14:49;7.70;61.90
3758;DHT22;1894;51.038;13.692;2023-03-16T17:17:17;7.60;61.80
3758;DHT22;1894;51.038;13.692;2023-03-16T17:19:45;7.50;62.00
3758;DHT22;1894;51.038;13.692;2023-03-16T17:22:23;7.50;62.40
3758;DHT22;1894;51.038;13.692;2023-03-16T17:24:52;7.50;62.70
3758;DHT22;1894;51.038;13.692;2023-03-16T17:27:26;7.30;63.50
3758;DHT22;1894;51.038;13.692;2023-03-16T17:29:55;7.30;63.50
3758;DHT22;1894;51.038;13.692;2023-03-16T17:32:23;7.20;64.00
3758;DHT22;1894;51.038;13.692;2023-03-16T17:34:51;7.10;65.00
3758;DHT22;1894;51.038;13.692;2023-03-16T17:37:21;7.00;64.50